createdAt,value
2019-01-17T00:02:57.927Z,8.87
2019-01-17T00:07:18.703Z,7.57
2019-01-17T00:11:41.350Z,6.43
2019-01-17T00:16:22.152Z,7.13
2019-01-17T00:21:02.786Z,11.87
2019-01-17T00:30:11.849Z,6.87
2019-01-17T00:34:52.471Z,7.20
2019-01-17T00:39:33.072Z,7.80
2019-01-17T00:44:13.875Z,7.30
2019-01-17T00:48:36.481Z,6.67
2019-01-17T00:53:11.026Z,6.90
2019-01-17T00:57:46.777Z,8.70
2019-01-17T01:02:04.020Z,10.93
2019-01-17T01:06:23.081Z,8.73
2019-01-17T01:10:44.530Z,9.30
2019-01-17T01:15:27.071Z,9.03
2019-01-17T01:20:07.780Z,11.27
2019-01-17T01:29:32.635Z,10.60
2019-01-17T01:34:13.255Z,13.67
2019-01-17T01:38:53.885Z,16.60
2019-01-17T01:43:34.622Z,15.87
2019-01-17T01:52:19.813Z,12.77
2019-01-17T01:56:33.764Z,10.90
2019-01-17T02:00:34.838Z,13.30
2019-01-17T02:04:55.660Z,10.47
2019-01-17T02:09:16.514Z,9.83
2019-01-17T02:13:37.515Z,7.67
2019-01-17T02:17:58.268Z,13.57
2019-01-17T02:22:19.024Z,8.50
2019-01-17T02:26:39.879Z,7.50
2019-01-17T02:31:00.720Z,8.27
2019-01-17T02:35:21.628Z,8.20
2019-01-17T02:39:43.349Z,7.40
2019-01-17T02:44:04.608Z,8.63
2019-01-17T02:48:25.439Z,8.90
2019-01-17T02:52:41.710Z,11.40
2019-01-17T02:56:55.733Z,12.40
2019-01-17T03:01:10.144Z,8.47
2019-01-17T03:05:24.548Z,10.17
2019-01-17T03:09:39.009Z,11.87
2019-01-17T03:13:53.613Z,9.37
2019-01-17T03:18:07.585Z,8.30
2019-01-17T03:22:22.193Z,7.17
2019-01-17T03:26:36.682Z,8.67
2019-01-17T03:30:51.090Z,7.57
2019-01-17T03:35:05.529Z,7.93
2019-01-17T03:39:20.288Z,8.13
2019-01-17T03:43:34.906Z,6.23
2019-01-17T03:47:49.270Z,7.13
2019-01-17T03:52:03.659Z,6.50
2019-01-17T03:56:21.833Z,6.87
2019-01-17T04:04:52.995Z,3.80
2019-01-17T04:09:07.388Z,3.03
2019-01-17T04:13:22.124Z,2.73
2019-01-17T04:17:36.577Z,2.13
2019-01-17T04:21:51.289Z,2.97
2019-01-17T04:26:05.808Z,3.47
2019-01-17T04:30:20.594Z,2.50
2019-01-17T04:34:35.259Z,2.30
2019-01-17T04:38:49.809Z,2.03
2019-01-17T04:43:04.532Z,1.83
2019-01-17T04:47:19.244Z,3.83
2019-01-17T04:51:33.787Z,1.90
2019-01-17T04:55:48.472Z,2.20
2019-01-17T04:59:49.375Z,2.70
2019-01-17T05:04:10.106Z,1.90
2019-01-17T05:08:30.816Z,1.40
2019-01-17T05:12:51.551Z,1.60
2019-01-17T05:16:52.417Z,1.20
2019-01-17T05:21:13.153Z,1.87
2019-01-17T05:25:33.933Z,1.53
2019-01-17T05:29:54.776Z,2.30
2019-01-17T05:34:15.618Z,2.13
2019-01-17T05:38:36.469Z,2.27
2019-01-17T05:42:57.294Z,1.83
2019-01-17T05:46:58.177Z,2.50
2019-01-17T05:51:18.929Z,2.43
2019-01-17T05:55:39.653Z,2.40
2019-01-17T05:59:40.607Z,1.80
2019-01-17T06:04:01.352Z,2.50
2019-01-17T06:08:22.112Z,1.60
2019-01-17T06:12:42.942Z,1.70
2019-01-17T06:17:03.687Z,1.70
2019-01-17T06:21:24.549Z,1.37
2019-01-17T06:25:45.503Z,2.03
2019-01-17T06:30:08.108Z,2.70
2019-01-17T06:34:28.842Z,1.40
2019-01-17T06:38:49.598Z,2.47
2019-01-17T06:42:50.568Z,1.30
2019-01-17T06:47:11.416Z,1.33
2019-01-17T06:51:26.112Z,1.17
2019-01-17T06:55:40.842Z,1.00
2019-01-17T06:59:55.304Z,0.90
2019-01-17T07:04:09.787Z,1.33
2019-01-17T07:08:24.380Z,1.43
2019-01-17T07:12:38.835Z,1.77
2019-01-17T07:16:53.621Z,2.00
2019-01-17T07:21:08.341Z,1.10
2019-01-17T07:25:23.085Z,1.47
2019-01-17T07:29:37.786Z,1.20
2019-01-17T07:33:52.297Z,1.33
2019-01-17T07:38:06.649Z,1.50
2019-01-17T07:42:21.242Z,1.33
2019-01-17T07:46:36.573Z,1.40
2019-01-17T07:50:51.347Z,3.03
2019-01-17T07:55:06.087Z,1.80
2019-01-17T07:59:20.635Z,1.67
2019-01-17T08:03:34.517Z,2.50
2019-01-17T08:07:48.379Z,2.43
2019-01-17T08:12:05.148Z,5.23
2019-01-17T08:16:19.417Z,2.20
2019-01-17T08:20:34.180Z,3.10
2019-01-17T08:24:48.730Z,2.37
2019-01-17T08:29:03.202Z,3.20
2019-01-17T08:33:17.780Z,1.73
2019-01-17T08:37:32.243Z,1.80
2019-01-17T08:41:46.766Z,1.67
2019-01-17T08:46:00.687Z,1.47
2019-01-17T08:50:15.360Z,2.10
2019-01-17T08:54:29.216Z,1.23
2019-01-17T08:58:43.676Z,1.83
2019-01-17T09:02:58.257Z,1.20
2019-01-17T09:07:12.765Z,1.50
2019-01-17T09:11:27.082Z,1.60
2019-01-17T09:15:41.665Z,1.40
2019-01-17T09:19:56.241Z,1.10
2019-01-17T09:24:10.849Z,1.43
2019-01-17T09:28:25.474Z,6.30
2019-01-17T09:32:39.979Z,1.77
2019-01-17T09:36:54.425Z,1.40
2019-01-17T09:41:09.030Z,1.60
2019-01-17T09:45:22.899Z,1.07
2019-01-17T09:49:36.725Z,1.33
2019-01-17T09:53:50.687Z,1.67
2019-01-17T09:57:51.690Z,1.37
2019-01-17T10:02:12.432Z,1.17
2019-01-17T10:06:33.180Z,1.57
2019-01-17T10:10:54.050Z,0.80
2019-01-17T10:15:36.542Z,1.43
2019-01-17T10:20:17.241Z,1.77
2019-01-17T10:24:57.851Z,0.93
2019-01-17T10:29:38.450Z,1.27
2019-01-17T10:34:20.986Z,1.47
2019-01-17T10:39:01.615Z,2.63
2019-01-17T10:43:42.215Z,2.30
2019-01-17T10:48:23.490Z,1.50
2019-01-17T10:52:37.464Z,1.30
2019-01-17T10:56:52.105Z,0.90
2019-01-17T11:01:06.032Z,1.07
2019-01-17T11:05:28.704Z,1.47
2019-01-17T11:10:11.216Z,1.30
2019-01-17T11:14:51.814Z,1.10
2019-01-17T11:19:34.434Z,3.70
2019-01-17T11:24:16.909Z,1.23
2019-01-17T11:28:57.535Z,3.43
2019-01-17T11:33:38.145Z,1.50
2019-01-17T11:38:20.695Z,2.40
2019-01-17T11:43:01.304Z,1.03
2019-01-17T11:47:43.801Z,2.80
2019-01-17T11:52:24.422Z,2.83
2019-01-17T11:57:05.049Z,2.60
2019-01-17T12:01:46.253Z,1.40
2019-01-17T12:06:07.038Z,2.13
2019-01-17T12:10:27.787Z,1.20
2019-01-17T12:14:48.650Z,2.10
2019-01-17T12:19:09.508Z,3.63
2019-01-17T12:23:30.504Z,7.53
2019-01-17T12:27:51.251Z,2.90
2019-01-17T12:32:12.320Z,2.03
2019-01-17T12:36:33.141Z,2.17
2019-01-17T12:40:53.949Z,3.37
2019-01-17T12:45:14.728Z,0.80
2019-01-17T12:49:35.588Z,1.43
2019-01-17T12:53:52.784Z,2.33
2019-01-17T12:58:07.738Z,4.60
2019-01-17T13:02:22.153Z,1.20
2019-01-17T13:06:36.373Z,4.77
2019-01-17T13:10:50.854Z,1.60
2019-01-17T13:15:05.466Z,2.60
2019-01-17T13:19:20.438Z,2.13
2019-01-17T13:23:36.837Z,3.00
2019-01-17T13:27:51.428Z,3.10
2019-01-17T13:32:05.641Z,2.93
2019-01-17T13:36:20.279Z,2.43
2019-01-17T13:40:35.089Z,1.90
2019-01-17T13:44:49.819Z,0.87
2019-01-17T13:49:04.102Z,3.50
2019-01-17T13:53:18.484Z,3.40
2019-01-17T13:57:32.749Z,1.53
2019-01-17T14:01:47.347Z,3.67
2019-01-17T14:06:01.778Z,2.03
2019-01-17T14:10:16.258Z,2.30
2019-01-17T14:14:30.780Z,1.20
2019-01-17T14:18:44.738Z,1.60
2019-01-17T14:22:59.326Z,1.37
2019-01-17T14:27:00.388Z,0.70
2019-01-17T14:31:21.223Z,0.60
2019-01-17T14:35:42.128Z,0.50
2019-01-17T14:39:43.018Z,0.60
2019-01-17T14:43:44.017Z,0.70
2019-01-17T14:48:04.772Z,0.80
2019-01-17T14:52:18.698Z,1.80
2019-01-17T14:56:19.611Z,0.90
2019-01-17T15:00:40.449Z,1.00
2019-01-17T15:05:24.013Z,1.47
2019-01-17T15:09:44.948Z,1.07
2019-01-17T15:14:05.778Z,1.53
2019-01-17T15:18:26.513Z,1.40
2019-01-17T15:22:48.359Z,2.10
2019-01-17T15:26:49.890Z,1.97
2019-01-17T15:30:51.203Z,2.30
2019-01-17T15:35:04.510Z,4.70
2019-01-17T15:38:55.859Z,8.77
2019-01-17T15:43:17.144Z,6.10
2019-01-17T15:47:37.966Z,3.40
2019-01-17T15:56:27.802Z,2.90
2019-01-17T16:01:10.605Z,5.40
2019-01-17T16:05:33.018Z,3.17
2019-01-17T16:09:54.341Z,3.83
2019-01-17T16:13:55.815Z,6.03
2019-01-17T16:18:17.959Z,4.47
2019-01-17T16:22:38.921Z,4.30
2019-01-17T16:26:59.669Z,3.57
2019-01-17T16:31:20.533Z,5.30
2019-01-17T16:35:41.281Z,3.60
2019-01-17T16:39:55.876Z,4.97
2019-01-17T16:44:10.323Z,4.57
2019-01-17T16:48:25.057Z,4.90
2019-01-17T16:52:26.487Z,5.20
2019-01-17T16:56:47.213Z,6.27
2019-01-17T17:01:07.950Z,6.87
2019-01-17T17:05:28.732Z,7.50
2019-01-17T17:09:49.468Z,6.63
2019-01-17T17:13:50.745Z,4.10
2019-01-17T17:18:11.500Z,7.05
2019-01-17T17:22:32.286Z,5.27
2019-01-17T17:26:53.406Z,5.43
2019-01-17T17:31:14.153Z,9.93
2019-01-17T17:35:15.261Z,11.37
2019-01-17T17:39:29.792Z,8.67
2019-01-17T17:43:46.188Z,10.03
2019-01-17T17:48:00.234Z,9.60
2019-01-17T17:52:14.857Z,8.83
2019-01-17T17:56:29.441Z,8.43
2019-01-17T18:00:44.140Z,6.00
2019-01-17T18:04:59.827Z,5.73
2019-01-17T18:09:14.382Z,9.03
2019-01-17T18:13:28.881Z,6.93
2019-01-17T18:17:43.589Z,6.37
2019-01-17T18:21:57.865Z,6.40
2019-01-17T18:26:12.361Z,4.30
2019-01-17T18:30:26.821Z,12.03
2019-01-17T18:34:41.329Z,6.63
2019-01-17T18:38:55.977Z,4.57
2019-01-17T18:43:10.433Z,4.07
2019-01-17T18:47:25.186Z,5.20
2019-01-17T18:51:39.186Z,4.10
2019-01-17T18:55:53.816Z,5.97
2019-01-17T19:00:11.195Z,12.23
2019-01-17T19:09:02.895Z,10.00
2019-01-17T19:13:45.480Z,8.87
2019-01-17T19:18:06.239Z,18.47
2019-01-17T19:22:27.065Z,8.73
2019-01-17T19:26:47.905Z,7.70
2019-01-17T19:31:08.770Z,11.57
2019-01-17T19:35:29.634Z,12.43
2019-01-17T19:39:50.528Z,4.80
2019-01-17T19:44:11.424Z,5.93
2019-01-17T19:48:32.149Z,7.77
2019-01-17T19:52:53.029Z,6.27
2019-01-17T19:57:13.864Z,5.77
2019-01-17T20:01:34.699Z,4.53
2019-01-17T20:05:55.570Z,8.90
2019-01-17T20:10:36.184Z,4.77
2019-01-17T20:14:57.023Z,7.30
2019-01-17T20:19:18.149Z,8.65
2019-01-17T20:23:33.015Z,6.07
2019-01-17T20:27:47.578Z,6.27
2019-01-17T20:31:48.467Z,6.57
2019-01-17T20:35:49.466Z,3.93
2019-01-17T20:39:50.569Z,3.10
2019-01-17T20:44:12.207Z,4.53
2019-01-17T20:48:33.071Z,3.50
2019-01-17T20:52:47.850Z,4.27
2019-01-17T20:57:01.864Z,7.20
2019-01-17T21:01:16.426Z,7.47
2019-01-17T21:05:31.015Z,4.87
2019-01-17T21:09:45.708Z,5.77
2019-01-17T21:14:00.289Z,4.37
2019-01-17T21:18:14.929Z,8.47
2019-01-17T21:22:28.796Z,5.27
2019-01-17T21:26:45.095Z,8.03
2019-01-17T21:31:00.789Z,8.80
2019-01-17T21:35:18.867Z,4.87
2019-01-17T21:39:33.540Z,5.27
2019-01-17T21:43:48.093Z,10.33
2019-01-17T21:48:02.435Z,7.40
2019-01-17T21:52:18.290Z,6.60
2019-01-17T21:56:37.143Z,6.43
2019-01-17T22:00:53.360Z,6.80
2019-01-17T22:05:09.940Z,7.13
2019-01-17T22:09:24.348Z,5.00
2019-01-17T22:13:47.007Z,9.17
2019-01-17T22:18:07.884Z,4.93
2019-01-17T22:22:28.749Z,7.87
2019-01-17T22:26:49.500Z,6.83
2019-01-17T22:31:10.360Z,6.67
2019-01-17T22:35:11.417Z,5.53
2019-01-17T22:39:32.140Z,5.57
2019-01-17T22:43:52.994Z,6.07
2019-01-17T22:47:54.084Z,8.10
2019-01-17T22:52:14.827Z,5.47
2019-01-17T22:56:29.173Z,7.57
2019-01-17T23:05:12.516Z,6.57
2019-01-17T23:09:29.335Z,7.03
2019-01-17T23:13:30.228Z,7.63
2019-01-17T23:17:31.097Z,10.67
2019-01-17T23:21:45.881Z,10.97
2019-01-17T23:26:00.246Z,9.73
2019-01-17T23:30:15.665Z,7.47
2019-01-17T23:34:32.873Z,7.23
2019-01-17T23:38:46.975Z,5.83
2019-01-17T23:43:01.529Z,8.50
2019-01-17T23:47:15.957Z,6.87
2019-01-17T23:51:30.599Z,6.97
2019-01-17T23:55:44.920Z,9.90
2019-01-17T23:59:59.392Z,7.13
